sensor_id;sensor_type;location;lat;lon;timestamp;pressure;altitude;pressure_sealevel;temperature;humidity
5380;BME280;2713;42.680;23.310;2022-10-22T00:00:04;95911.94;;;11.66;67.13
5380;BME280;2713;42.680;23.310;2022-10-22T00:02:32;95925.78;;;11.58;67.52
5380;BME280;2713;42.680;23.310;2022-10-22T00:04:58;95920.91;;;11.47;67.84
5380;BME280;2713;42.680;23.310;2022-10-22T00:07:25;95928.25;;;11.19;68.69
5380;BME280;2713;42.680;23.310;2022-10-22T00:09:52;95926.13;;;11.15;69.16
5380;BME280;2713;42.680;23.310;2022-10-22T00:12:19;95922.88;;;11.53;67.53
5380;BME280;2713;42.680;23.310;2022-10-22T00:14:46;95923.03;;;11.19;68.61
5380;BME280;2713;42.680;23.310;2022-10-22T00:17:15;95925.81;;;11.42;68.14
5380;BME280;2713;42.680;23.310;2022-10-22T00:19:42;95931.66;;;11.52;67.76
5380;BME280;2713;42.680;23.310;2022-10-22T00:22:10;95935.88;;;11.37;67.83
5380;BME280;2713;42.680;23.310;2022-10-22T00:24:38;95938.00;;;11.09;69.23
5380;BME280;2713;42.680;23.310;2022-10-22T00:27:05;95926.44;;;11.12;69.02
5380;BME280;2713;42.680;23.310;2022-10-22T00:29:33;95914.09;;;11.22;68.69
5380;BME280;2713;42.680;23.310;2022-10-22T00:32:00;95910.81;;;11.44;68.01
5380;BME280;2713;42.680;23.310;2022-10-22T00:34:28;95909.84;;;11.21;68.57
5380;BME280;2713;42.680;23.310;2022-10-22T00:36:55;95892.78;;;11.43;67.55
5380;BME280;2713;42.680;23.310;2022-10-22T00:39:24;95913.41;;;11.68;66.73
5380;BME280;2713;42.680;23.310;2022-10-22T00:41:52;95916.38;;;11.74;66.73
5380;BME280;2713;42.680;23.310;2022-10-22T00:47:24;95914.22;;;11.69;66.87
5380;BME280;2713;42.680;23.310;2022-10-22T00:49:55;95924.97;;;11.66;66.57
5380;BME280;2713;42.680;23.310;2022-10-22T00:52:23;95919.28;;;11.14;67.65
5380;BME280;2713;42.680;23.310;2022-10-22T00:54:50;95915.66;;;10.83;69.01
5380;BME280;2713;42.680;23.310;2022-10-22T00:57:19;95915.66;;;10.83;69.25
5380;BME280;2713;42.680;23.310;2022-10-22T00:59:47;95909.50;;;10.84;69.62
5380;BME280;2713;42.680;23.310;2022-10-22T01:02:14;95902.34;;;10.94;69.15
5380;BME280;2713;42.680;23.310;2022-10-22T01:04:41;95893.75;;;11.01;68.62
5380;BME280;2713;42.680;23.310;2022-10-22T01:07:14;95894.22;;;10.81;69.39
5380;BME280;2713;42.680;23.310;2022-10-22T01:09:46;95884.50;;;10.99;68.91
5380;BME280;2713;42.680;23.310;2022-10-22T01:12:20;95877.63;;;10.90;69.14
5380;BME280;2713;42.680;23.310;2022-10-22T01:15:02;95887.06;;;10.75;69.31
5380;BME280;2713;42.680;23.310;2022-10-22T01:17:33;95872.94;;;10.85;69.10
5380;BME280;2713;42.680;23.310;2022-10-22T01:20:12;95881.91;;;11.23;67.91
5380;BME280;2713;42.680;23.310;2022-10-22T01:22:54;95878.63;;;11.37;66.97
5380;BME280;2713;42.680;23.310;2022-10-22T01:25:30;95875.69;;;11.00;68.01
5380;BME280;2713;42.680;23.310;2022-10-22T01:28:08;95873.72;;;10.86;68.72
5380;BME280;2713;42.680;23.310;2022-10-22T01:30:40;95860.91;;;10.84;68.60
5380;BME280;2713;42.680;23.310;2022-10-22T01:33:12;95862.22;;;11.04;67.99
5380;BME280;2713;42.680;23.310;2022-10-22T01:35:42;95847.91;;;11.08;67.51
5380;BME280;2713;42.680;23.310;2022-10-22T01:38:14;95830.81;;;10.98;67.50
5380;BME280;2713;42.680;23.310;2022-10-22T01:40:42;95845.44;;;11.07;67.85
5380;BME280;2713;42.680;23.310;2022-10-22T01:43:10;95854.41;;;11.12;67.52
5380;BME280;2713;42.680;23.310;2022-10-22T01:45:41;95852.44;;;11.14;67.40
5380;BME280;2713;42.680;23.310;2022-10-22T01:48:24;95848.53;;;11.35;66.56
5380;BME280;2713;42.680;23.310;2022-10-22T01:53:52;95856.19;;;11.04;67.61
5380;BME280;2713;42.680;23.310;2022-10-22T01:56:30;95854.22;;;10.90;67.84
5380;BME280;2713;42.680;23.310;2022-10-22T01:59:04;95858.63;;;11.22;66.90
5380;BME280;2713;42.680;23.310;2022-10-22T02:01:40;95862.38;;;11.19;66.55
5380;BME280;2713;42.680;23.310;2022-10-22T02:04:14;95851.94;;;10.87;67.82
5380;BME280;2713;42.680;23.310;2022-10-22T02:06:43;95854.53;;;10.54;68.61
5380;BME280;2713;42.680;23.310;2022-10-22T02:09:13;95865.94;;;10.94;67.71
5380;BME280;2713;42.680;23.310;2022-10-22T02:11:42;95862.66;;;10.76;68.50
5380;BME280;2713;42.680;23.310;2022-10-22T02:14:11;95855.19;;;10.64;68.85
5380;BME280;2713;42.680;23.310;2022-10-22T02:16:43;95844.13;;;10.62;68.89
5380;BME280;2713;42.680;23.310;2022-10-22T02:19:19;95849.38;;;10.95;68.21
5380;BME280;2713;42.680;23.310;2022-10-22T02:21:49;95848.22;;;10.65;68.86
5380;BME280;2713;42.680;23.310;2022-10-22T02:24:16;95845.47;;;10.99;67.66
5380;BME280;2713;42.680;23.310;2022-10-22T02:26:48;95836.84;;;10.98;67.50
5380;BME280;2713;42.680;23.310;2022-10-22T02:29:20;95845.31;;;11.08;67.14
5380;BME280;2713;42.680;23.310;2022-10-22T02:31:54;95852.78;;;11.19;66.63
5380;BME280;2713;42.680;23.310;2022-10-22T02:34:27;95859.13;;;11.25;66.47
5380;BME280;2713;42.680;23.310;2022-10-22T02:36:56;95859.44;;;10.98;66.94
5380;BME280;2713;42.680;23.310;2022-10-22T02:39:24;95861.38;;;10.80;67.81
5380;BME280;2713;42.680;23.310;2022-10-22T02:41:52;95864.91;;;10.62;68.67
5380;BME280;2713;42.680;23.310;2022-10-22T02:44:20;95879.56;;;10.72;68.36
5380;BME280;2713;42.680;23.310;2022-10-22T02:46:48;95868.72;;;10.92;67.71
5380;BME280;2713;42.680;23.310;2022-10-22T02:49:16;95873.91;;;10.84;68.12
5380;BME280;2713;42.680;23.310;2022-10-22T02:51:43;95876.81;;;10.65;68.73
5380;BME280;2713;42.680;23.310;2022-10-22T02:54:10;95871.53;;;10.41;69.78
5380;BME280;2713;42.680;23.310;2022-10-22T02:56:37;95867.13;;;10.33;69.63
5380;BME280;2713;42.680;23.310;2022-10-22T02:59:04;95873.03;;;10.59;68.95
5380;BME280;2713;42.680;23.310;2022-10-22T03:01:31;95857.31;;;10.85;68.01
5380;BME280;2713;42.680;23.310;2022-10-22T03:03:57;95858.28;;;10.76;68.15
5380;BME280;2713;42.680;23.310;2022-10-22T03:06:26;95867.09;;;10.91;67.70
5380;BME280;2713;42.680;23.310;2022-10-22T03:08:53;95867.25;;;10.82;67.87
5380;BME280;2713;42.680;23.310;2022-10-22T03:11:20;95870.16;;;10.87;67.61
5380;BME280;2713;42.680;23.310;2022-10-22T03:13:47;95858.78;;;10.88;67.65
5380;BME280;2713;42.680;23.310;2022-10-22T03:16:13;95845.06;;;10.37;69.00
5380;BME280;2713;42.680;23.310;2022-10-22T03:18:40;95863.22;;;10.29;69.75
5380;BME280;2713;42.680;23.310;2022-10-22T03:21:11;95859.97;;;10.35;69.69
5380;BME280;2713;42.680;23.310;2022-10-22T03:23:41;95855.56;;;10.28;69.71
5380;BME280;2713;42.680;23.310;2022-10-22T03:26:10;95856.72;;;10.33;69.81
5380;BME280;2713;42.680;23.310;2022-10-22T03:28:39;95847.97;;;10.34;69.34
5380;BME280;2713;42.680;23.310;2022-10-22T03:31:07;95854.47;;;10.38;69.75
5380;BME280;2713;42.680;23.310;2022-10-22T03:33:34;95853.19;;;10.58;68.94
5380;BME280;2713;42.680;23.310;2022-10-22T03:36:01;95844.31;;;10.77;67.96
5380;BME280;2713;42.680;23.310;2022-10-22T03:38:28;95845.59;;;10.65;68.15
5380;BME280;2713;42.680;23.310;2022-10-22T03:40:56;95821.22;;;10.66;67.48
5380;BME280;2713;42.680;23.310;2022-10-22T03:43:23;95849.84;;;10.74;67.90
5380;BME280;2713;42.680;23.310;2022-10-22T03:45:50;95843.66;;;10.83;67.29
5380;BME280;2713;42.680;23.310;2022-10-22T03:48:17;95841.22;;;10.90;67.25
5380;BME280;2713;42.680;23.310;2022-10-22T03:50:44;95847.06;;;10.84;67.33
5380;BME280;2713;42.680;23.310;2022-10-22T03:53:11;95854.91;;;10.92;66.90
5380;BME280;2713;42.680;23.310;2022-10-22T03:55:40;95847.72;;;10.86;67.26
5380;BME280;2713;42.680;23.310;2022-10-22T03:58:08;95845.88;;;10.46;68.65
5380;BME280;2713;42.680;23.310;2022-10-22T04:00:35;95863.84;;;10.31;69.42
5380;BME280;2713;42.680;23.310;2022-10-22T04:03:02;95855.28;;;10.31;69.61
5380;BME280;2713;42.680;23.310;2022-10-22T04:05:31;95847.09;;;10.17;70.18
5380;BME280;2713;42.680;23.310;2022-10-22T04:07:58;95835.72;;;10.18;70.26
5380;BME280;2713;42.680;23.310;2022-10-22T04:10:25;95837.88;;;10.31;69.93
5380;BME280;2713;42.680;23.310;2022-10-22T04:12:52;95846.94;;;10.19;70.13
5380;BME280;2713;42.680;23.310;2022-10-22T04:15:20;95846.97;;;10.27;69.93
5380;BME280;2713;42.680;23.310;2022-10-22T04:17:47;95834.63;;;10.29;70.05
5380;BME280;2713;42.680;23.310;2022-10-22T04:20:13;95827.78;;;10.28;70.42
5380;BME280;2713;42.680;23.310;2022-10-22T04:22:40;95819.06;;;10.45;69.70
5380;BME280;2713;42.680;23.310;2022-10-22T04:25:08;95833.25;;;10.67;69.07
5380;BME280;2713;42.680;23.310;2022-10-22T04:27:35;95835.69;;;10.77;68.74
5380;BME280;2713;42.680;23.310;2022-10-22T04:30:03;95819.63;;;10.81;68.33
5380;BME280;2713;42.680;23.310;2022-10-22T04:32:35;95821.53;;;10.63;69.07
5380;BME280;2713;42.680;23.310;2022-10-22T04:35:02;95831.59;;;10.66;69.59
5380;BME280;2713;42.680;23.310;2022-10-22T04:37:29;95836.16;;;10.72;69.77
5380;BME280;2713;42.680;23.310;2022-10-22T04:39:57;95834.69;;;10.69;70.11
5380;BME280;2713;42.680;23.310;2022-10-22T04:42:24;95829.34;;;10.71;69.98
5380;BME280;2713;42.680;23.310;2022-10-22T04:44:51;95839.44;;;10.74;69.77
5380;BME280;2713;42.680;23.310;2022-10-22T04:47:17;95835.53;;;10.78;69.77
5380;BME280;2713;42.680;23.310;2022-10-22T04:49:46;95832.44;;;10.66;70.01
5380;BME280;2713;42.680;23.310;2022-10-22T04:52:12;95834.38;;;10.64;70.55
5380;BME280;2713;42.680;23.310;2022-10-22T04:54:39;95839.44;;;10.74;70.04
5380;BME280;2713;42.680;23.310;2022-10-22T04:57:06;95850.97;;;10.72;70.05
5380;BME280;2713;42.680;23.310;2022-10-22T04:59:33;95851.75;;;10.72;70.14
5380;BME280;2713;42.680;23.310;2022-10-22T05:02:00;95856.66;;;10.83;69.58
5380;BME280;2713;42.680;23.310;2022-10-22T05:04:27;95850.47;;;10.76;70.04
5380;BME280;2713;42.680;23.310;2022-10-22T05:06:55;95850.00;;;10.81;69.79
5380;BME280;2713;42.680;23.310;2022-10-22T05:09:22;95858.78;;;10.80;69.68
5380;BME280;2713;42.680;23.310;2022-10-22T05:11:50;95872.59;;;10.80;70.30
5380;BME280;2713;42.680;23.310;2022-10-22T05:14:19;95878.28;;;10.84;70.29
5380;BME280;2713;42.680;23.310;2022-10-22T05:16:46;95875.69;;;10.84;70.32
5380;BME280;2713;42.680;23.310;2022-10-22T05:19:16;95874.00;;;10.58;71.20
5380;BME280;2713;42.680;23.310;2022-10-22T05:21:43;95870.94;;;10.79;70.74
5380;BME280;2713;42.680;23.310;2022-10-22T05:24:12;95863.81;;;10.65;71.02
5380;BME280;2713;42.680;23.310;2022-10-22T05:26:39;95876.59;;;10.58;71.24
5380;BME280;2713;42.680;23.310;2022-10-22T05:29:06;95862.34;;;10.71;71.23
5380;BME280;2713;42.680;23.310;2022-10-22T05:31:33;95870.47;;;10.76;71.04
5380;BME280;2713;42.680;23.310;2022-10-22T05:33:59;95873.88;;;10.68;70.81
5380;BME280;2713;42.680;23.310;2022-10-22T05:36:26;95878.44;;;10.82;70.69
5380;BME280;2713;42.680;23.310;2022-10-22T05:38:53;95877.00;;;11.04;69.91
5380;BME280;2713;42.680;23.310;2022-10-22T05:41:25;95867.75;;;11.09;69.62
5380;BME280;2713;42.680;23.310;2022-10-22T05:43:54;95883.84;;;11.05;69.89
5380;BME280;2713;42.680;23.310;2022-10-22T05:46:22;95874.75;;;11.09;69.40
5380;BME280;2713;42.680;23.310;2022-10-22T05:48:49;95876.84;;;11.13;69.08
5380;BME280;2713;42.680;23.310;2022-10-22T05:51:16;95874.09;;;10.99;69.85
5380;BME280;2713;42.680;23.310;2022-10-22T05:53:43;95878.16;;;11.26;68.75
5380;BME280;2713;42.680;23.310;2022-10-22T05:56:11;95881.38;;;11.28;69.04
5380;BME280;2713;42.680;23.310;2022-10-22T05:58:41;95878.97;;;11.26;68.80
5380;BME280;2713;42.680;23.310;2022-10-22T06:01:11;95874.41;;;11.36;68.46
5380;BME280;2713;42.680;23.310;2022-10-22T06:03:38;95861.06;;;11.39;68.16
5380;BME280;2713;42.680;23.310;2022-10-22T06:06:14;95880.88;;;11.48;67.58
5380;BME280;2713;42.680;23.310;2022-10-22T06:08:43;95891.31;;;11.40;68.11
5380;BME280;2713;42.680;23.310;2022-10-22T06:11:10;95880.91;;;11.40;68.31
5380;BME280;2713;42.680;23.310;2022-10-22T06:13:37;95879.25;;;11.55;67.91
5380;BME280;2713;42.680;23.310;2022-10-22T06:16:06;95884.00;;;11.36;68.87
5380;BME280;2713;42.680;23.310;2022-10-22T06:18:33;95882.38;;;11.43;68.45
5380;BME280;2713;42.680;23.310;2022-10-22T06:21:03;95891.63;;;11.45;68.54
5380;BME280;2713;42.680;23.310;2022-10-22T06:23:30;95887.41;;;11.77;67.26
5380;BME280;2713;42.680;23.310;2022-10-22T06:25:57;95889.31;;;11.83;67.05
5380;BME280;2713;42.680;23.310;2022-10-22T06:28:24;95881.56;;;11.75;67.41
5380;BME280;2713;42.680;23.310;2022-10-22T06:30:51;95881.03;;;11.79;67.22
5380;BME280;2713;42.680;23.310;2022-10-22T06:33:20;95884.75;;;11.68;67.56
5380;BME280;2713;42.680;23.310;2022-10-22T06:35:46;95896.50;;;11.81;67.08
5380;BME280;2713;42.680;23.310;2022-10-22T06:38:14;95890.28;;;11.90;66.68
5380;BME280;2713;42.680;23.310;2022-10-22T06:40:40;95889.28;;;11.99;66.79
5380;BME280;2713;42.680;23.310;2022-10-22T06:43:27;95891.31;;;12.19;65.78
5380;BME280;2713;42.680;23.310;2022-10-22T06:45:58;95892.25;;;11.88;66.86
5380;BME280;2713;42.680;23.310;2022-10-22T06:48:26;95888.78;;;12.03;66.42
5380;BME280;2713;42.680;23.310;2022-10-22T06:50:53;95884.03;;;12.15;66.48
5380;BME280;2713;42.680;23.310;2022-10-22T06:53:20;95892.72;;;12.38;66.26
5380;BME280;2713;42.680;23.310;2022-10-22T06:55:47;95887.75;;;12.59;65.53
5380;BME280;2713;42.680;23.310;2022-10-22T06:58:14;95891.28;;;12.97;65.09
5380;BME280;2713;42.680;23.310;2022-10-22T07:00:40;95891.59;;;13.25;63.45
5380;BME280;2713;42.680;23.310;2022-10-22T07:03:09;95892.16;;;13.73;62.65
5380;BME280;2713;42.680;23.310;2022-10-22T07:05:39;95901.19;;;14.14;60.89
5380;BME280;2713;42.680;23.310;2022-10-22T07:08:07;95893.66;;;14.34;60.36
5380;BME280;2713;42.680;23.310;2022-10-22T07:10:34;95887.53;;;14.62;58.77
5380;BME280;2713;42.680;23.310;2022-10-22T07:13:01;95897.50;;;14.23;59.43
5380;BME280;2713;42.680;23.310;2022-10-22T07:15:28;95889.63;;;14.52;58.84
5380;BME280;2713;42.680;23.310;2022-10-22T07:17:54;95895.50;;;14.69;58.70
5380;BME280;2713;42.680;23.310;2022-10-22T07:20:21;95889.72;;;14.95;57.49
5380;BME280;2713;42.680;23.310;2022-10-22T07:22:50;95885.81;;;14.69;57.93
5380;BME280;2713;42.680;23.310;2022-10-22T07:25:16;95886.25;;;15.09;56.92
5380;BME280;2713;42.680;23.310;2022-10-22T07:27:43;95889.38;;;15.40;56.57
5380;BME280;2713;42.680;23.310;2022-10-22T07:30:10;95882.94;;;15.64;55.16
5380;BME280;2713;42.680;23.310;2022-10-22T07:32:37;95890.06;;;15.49;55.62
5380;BME280;2713;42.680;23.310;2022-10-22T07:35:05;95876.81;;;15.36;56.12
5380;BME280;2713;42.680;23.310;2022-10-22T07:37:32;95887.44;;;15.77;55.47
5380;BME280;2713;42.680;23.310;2022-10-22T07:40:00;95882.97;;;15.98;55.07
5380;BME280;2713;42.680;23.310;2022-10-22T07:42:27;95882.44;;;16.09;54.26
5380;BME280;2713;42.680;23.310;2022-10-22T07:44:54;95875.97;;;15.78;55.04
5380;BME280;2713;42.680;23.310;2022-10-22T07:47:21;95868.50;;;16.09;54.13
5380;BME280;2713;42.680;23.310;2022-10-22T07:49:48;95869.69;;;16.06;54.54
5380;BME280;2713;42.680;23.310;2022-10-22T07:52:14;95859.38;;;16.39;53.61
5380;BME280;2713;42.680;23.310;2022-10-22T07:54:41;95854.56;;;16.43;53.29
5380;BME280;2713;42.680;23.310;2022-10-22T07:57:09;95856.72;;;16.73;52.75
5380;BME280;2713;42.680;23.310;2022-10-22T07:59:36;95865.22;;;16.89;52.27
5380;BME280;2713;42.680;23.310;2022-10-22T08:02:03;95856.78;;;17.19;51.40
5380;BME280;2713;42.680;23.310;2022-10-22T08:04:30;95859.97;;;16.95;51.38
5380;BME280;2713;42.680;23.310;2022-10-22T08:06:57;95856.59;;;17.08;51.41
5380;BME280;2713;42.680;23.310;2022-10-22T08:09:24;95860.22;;;17.13;51.03
5380;BME280;2713;42.680;23.310;2022-10-22T08:11:50;95846.09;;;17.28;50.34
5380;BME280;2713;42.680;23.310;2022-10-22T08:14:20;95848.50;;;17.16;50.64
5380;BME280;2713;42.680;23.310;2022-10-22T08:16:47;95849.72;;;17.27;50.58
5380;BME280;2713;42.680;23.310;2022-10-22T08:19:14;95852.16;;;17.02;51.00
5380;BME280;2713;42.680;23.310;2022-10-22T08:21:43;95827.88;;;17.00;50.44
5380;BME280;2713;42.680;23.310;2022-10-22T08:24:10;95840.19;;;16.93;51.11
5380;BME280;2713;42.680;23.310;2022-10-22T08:26:37;95826.06;;;17.07;50.84
5380;BME280;2713;42.680;23.310;2022-10-22T08:29:05;95823.84;;;17.37;50.51
5380;BME280;2713;42.680;23.310;2022-10-22T08:31:33;95825.69;;;17.49;50.13
5380;BME280;2713;42.680;23.310;2022-10-22T08:34:00;95829.75;;;17.65;49.99
5380;BME280;2713;42.680;23.310;2022-10-22T08:36:27;95831.78;;;17.63;49.76
5380;BME280;2713;42.680;23.310;2022-10-22T08:38:54;95828.91;;;17.78;49.31
5380;BME280;2713;42.680;23.310;2022-10-22T08:41:22;95833.50;;;18.15;48.59
5380;BME280;2713;42.680;23.310;2022-10-22T08:44:15;95838.59;;;17.97;48.50
5380;BME280;2713;42.680;23.310;2022-10-22T08:47:11;95832.06;;;18.19;48.42
5380;BME280;2713;42.680;23.310;2022-10-22T08:49:42;95824.72;;;18.34;48.02
5380;BME280;2713;42.680;23.310;2022-10-22T08:52:16;95828.47;;;18.64;47.28
5380;BME280;2713;42.680;23.310;2022-10-22T08:54:50;95827.47;;;18.65;46.76
5380;BME280;2713;42.680;23.310;2022-10-22T08:57:23;95830.53;;;18.62;47.16
5380;BME280;2713;42.680;23.310;2022-10-22T09:00:03;95831.63;;;18.35;47.22
5380;BME280;2713;42.680;23.310;2022-10-22T09:02:38;95832.38;;;18.49;47.08
5380;BME280;2713;42.680;23.310;2022-10-22T09:05:21;95827.09;;;18.55;47.13
5380;BME280;2713;42.680;23.310;2022-10-22T09:07:54;95818.66;;;18.34;47.20
5380;BME280;2713;42.680;23.310;2022-10-22T09:10:25;95815.66;;;18.23;47.45
5380;BME280;2713;42.680;23.310;2022-10-22T09:12:52;95808.34;;;18.25;47.51
5380;BME280;2713;42.680;23.310;2022-10-22T09:15:19;95802.97;;;18.01;48.12
5380;BME280;2713;42.680;23.310;2022-10-22T09:17:58;95811.13;;;17.73;49.39
5380;BME280;2713;42.680;23.310;2022-10-22T09:20:33;95817.59;;;17.64;49.79
5380;BME280;2713;42.680;23.310;2022-10-22T09:23:16;95806.69;;;17.08;50.85
5380;BME280;2713;42.680;23.310;2022-10-22T09:25:46;95793.72;;;17.00;51.23
5380;BME280;2713;42.680;23.310;2022-10-22T09:28:13;95788.69;;;17.18;51.03
5380;BME280;2713;42.680;23.310;2022-10-22T09:30:40;95786.88;;;17.18;50.83
5380;BME280;2713;42.680;23.310;2022-10-22T09:33:13;95788.47;;;17.26;50.70
5380;BME280;2713;42.680;23.310;2022-10-22T09:35:46;95771.31;;;17.17;51.03
5380;BME280;2713;42.680;23.310;2022-10-22T09:38:14;95792.94;;;17.26;50.78
5380;BME280;2713;42.680;23.310;2022-10-22T09:40:43;95791.31;;;17.44;50.63
5380;BME280;2713;42.680;23.310;2022-10-22T09:43:11;95777.34;;;17.50;50.15
5380;BME280;2713;42.680;23.310;2022-10-22T09:45:39;95769.88;;;17.60;50.22
5380;BME280;2713;42.680;23.310;2022-10-22T09:48:18;95764.97;;;17.90;49.60
5380;BME280;2713;42.680;23.310;2022-10-22T09:50:48;95767.72;;;18.08;49.42
5380;BME280;2713;42.680;23.310;2022-10-22T09:53:19;95765.72;;;18.04;49.43
5380;BME280;2713;42.680;23.310;2022-10-22T09:55:50;95751.59;;;17.92;50.09
5380;BME280;2713;42.680;23.310;2022-10-22T09:58:18;95770.03;;;17.79;49.87
5380;BME280;2713;42.680;23.310;2022-10-22T10:00:51;95768.78;;;17.88;50.08
5380;BME280;2713;42.680;23.310;2022-10-22T10:03:23;95766.00;;;17.83;50.24
5380;BME280;2713;42.680;23.310;2022-10-22T10:05:52;95757.50;;;17.81;50.11
5380;BME280;2713;42.680;23.310;2022-10-22T10:08:19;95744.75;;;17.84;50.13
5380;BME280;2713;42.680;23.310;2022-10-22T10:10:49;95749.44;;;17.76;49.96
5380;BME280;2713;42.680;23.310;2022-10-22T10:13:26;95750.06;;;17.51;50.87
5380;BME280;2713;42.680;23.310;2022-10-22T10:15:59;95749.25;;;17.44;51.03
5380;BME280;2713;42.680;23.310;2022-10-22T10:18:42;95732.88;;;17.62;50.75
5380;BME280;2713;42.680;23.310;2022-10-22T10:21:19;95742.09;;;17.91;50.25
5380;BME280;2713;42.680;23.310;2022-10-22T10:23:55;95728.59;;;17.81;50.17
5380;BME280;2713;42.680;23.310;2022-10-22T10:26:28;95731.44;;;17.72;50.66
5380;BME280;2713;42.680;23.310;2022-10-22T10:29:08;95734.25;;;17.84;50.50
5380;BME280;2713;42.680;23.310;2022-10-22T10:31:48;95732.59;;;17.90;50.23
5380;BME280;2713;42.680;23.310;2022-10-22T10:34:26;95732.25;;;17.66;50.40
5380;BME280;2713;42.680;23.310;2022-10-22T10:37:02;95723.34;;;17.67;50.67
5380;BME280;2713;42.680;23.310;2022-10-22T10:39:38;95715.28;;;17.62;50.81
5380;BME280;2713;42.680;23.310;2022-10-22T10:42:15;95712.84;;;17.48;51.23
5380;BME280;2713;42.680;23.310;2022-10-22T10:45:02;95697.69;;;17.50;51.60
5380;BME280;2713;42.680;23.310;2022-10-22T10:47:49;95701.50;;;17.73;51.21
5380;BME280;2713;42.680;23.310;2022-10-22T10:50:28;95693.06;;;18.03;50.57
5380;BME280;2713;42.680;23.310;2022-10-22T10:53:02;95689.94;;;18.19;50.18
5380;BME280;2713;42.680;23.310;2022-10-22T10:55:37;95688.00;;;18.39;49.26
5380;BME280;2713;42.680;23.310;2022-10-22T10:58:17;95673.56;;;18.55;48.79
5380;BME280;2713;42.680;23.310;2022-10-22T11:00:53;95671.78;;;18.73;48.56
5380;BME280;2713;42.680;23.310;2022-10-22T11:06:20;95656.16;;;19.21;47.27
5380;BME280;2713;42.680;23.310;2022-10-22T11:08:53;95663.13;;;19.16;46.92
5380;BME280;2713;42.680;23.310;2022-10-22T11:11:29;95651.94;;;19.20;47.06
5380;BME280;2713;42.680;23.310;2022-10-22T11:14:02;95633.91;;;18.99;46.92
5380;BME280;2713;42.680;23.310;2022-10-22T11:16:34;95639.69;;;19.08;46.74
5380;BME280;2713;42.680;23.310;2022-10-22T11:19:07;95636.78;;;19.16;47.14
5380;BME280;2713;42.680;23.310;2022-10-22T11:21:41;95634.72;;;19.18;46.79
5380;BME280;2713;42.680;23.310;2022-10-22T11:24:17;95623.16;;;19.19;46.57
5380;BME280;2713;42.680;23.310;2022-10-22T11:26:48;95626.94;;;19.05;46.84
5380;BME280;2713;42.680;23.310;2022-10-22T11:29:21;95617.81;;;19.07;46.68
5380;BME280;2713;42.680;23.310;2022-10-22T11:31:51;95614.81;;;19.22;46.70
5380;BME280;2713;42.680;23.310;2022-10-22T11:34:24;95617.41;;;19.47;46.07
5380;BME280;2713;42.680;23.310;2022-10-22T11:36:54;95599.25;;;19.57;45.84
5380;BME280;2713;42.680;23.310;2022-10-22T11:39:38;95606.22;;;19.51;46.43
5380;BME280;2713;42.680;23.310;2022-10-22T11:42:09;95600.41;;;19.61;46.10
5380;BME280;2713;42.680;23.310;2022-10-22T11:44:48;95598.00;;;19.41;46.17
5380;BME280;2713;42.680;23.310;2022-10-22T11:47:18;95596.66;;;19.32;46.49
5380;BME280;2713;42.680;23.310;2022-10-22T11:49:54;95589.94;;;19.54;45.64
5380;BME280;2713;42.680;23.310;2022-10-22T11:52:26;95586.69;;;19.70;45.71
5380;BME280;2713;42.680;23.310;2022-10-22T11:55:28;95588.22;;;19.78;45.93
5380;BME280;2713;42.680;23.310;2022-10-22T11:58:00;95582.00;;;19.72;45.69
5380;BME280;2713;42.680;23.310;2022-10-22T12:00:34;95579.69;;;19.76;45.79
5380;BME280;2713;42.680;23.310;2022-10-22T12:03:14;95582.84;;;19.85;45.46
5380;BME280;2713;42.680;23.310;2022-10-22T12:05:43;95576.22;;;19.94;45.56
5380;BME280;2713;42.680;23.310;2022-10-22T12:08:29;95580.94;;;19.62;45.79
5380;BME280;2713;42.680;23.310;2022-10-22T12:11:06;95571.53;;;19.66;45.35
5380;BME280;2713;42.680;23.310;2022-10-22T12:16:45;95559.47;;;19.88;45.54
5380;BME280;2713;42.680;23.310;2022-10-22T12:19:15;95534.34;;;19.86;46.02
5380;BME280;2713;42.680;23.310;2022-10-22T12:21:46;95552.66;;;19.81;45.60
5380;BME280;2713;42.680;23.310;2022-10-22T12:24:18;95552.66;;;19.81;45.92
5380;BME280;2713;42.680;23.310;2022-10-22T12:26:45;95557.84;;;19.57;45.45
5380;BME280;2713;42.680;23.310;2022-10-22T12:29:16;95546.84;;;19.60;45.66
5380;BME280;2713;42.680;23.310;2022-10-22T12:31:44;95556.41;;;19.73;45.45
5380;BME280;2713;42.680;23.310;2022-10-22T12:34:14;95539.25;;;19.52;45.64
5380;BME280;2713;42.680;23.310;2022-10-22T12:36:42;95544.09;;;19.55;45.96
5380;BME280;2713;42.680;23.310;2022-10-22T12:39:12;95548.47;;;19.61;45.74
5380;BME280;2713;42.680;23.310;2022-10-22T12:41:41;95540.19;;;19.58;46.10
5380;BME280;2713;42.680;23.310;2022-10-22T12:44:11;95532.81;;;19.48;46.66
5380;BME280;2713;42.680;23.310;2022-10-22T12:46:40;95520.75;;;19.41;47.05
5380;BME280;2713;42.680;23.310;2022-10-22T12:49:13;95530.75;;;19.50;46.70
5380;BME280;2713;42.680;23.310;2022-10-22T12:51:42;95529.59;;;19.46;46.85
5380;BME280;2713;42.680;23.310;2022-10-22T12:54:17;95526.94;;;19.46;46.96
5380;BME280;2713;42.680;23.310;2022-10-22T12:56:48;95523.94;;;19.43;46.16
5380;BME280;2713;42.680;23.310;2022-10-22T12:59:19;95526.19;;;19.39;46.21
5380;BME280;2713;42.680;23.310;2022-10-22T13:01:48;95526.19;;;19.39;46.28
5380;BME280;2713;42.680;23.310;2022-10-22T13:04:22;95519.53;;;19.37;46.13
5380;BME280;2713;42.680;23.310;2022-10-22T13:07:04;95520.66;;;19.29;47.05
5380;BME280;2713;42.680;23.310;2022-10-22T13:09:37;95517.34;;;19.34;46.67
5380;BME280;2713;42.680;23.310;2022-10-22T13:12:08;95524.59;;;19.38;46.07
5380;BME280;2713;42.680;23.310;2022-10-22T13:14:39;95490.00;;;19.16;46.08
5380;BME280;2713;42.680;23.310;2022-10-22T13:17:09;95514.34;;;19.30;47.06
5380;BME280;2713;42.680;23.310;2022-10-22T13:19:43;95509.34;;;19.40;46.82
5380;BME280;2713;42.680;23.310;2022-10-22T13:22:40;95505.72;;;19.41;46.82
5380;BME280;2713;42.680;23.310;2022-10-22T13:25:20;95497.94;;;19.46;46.71
5380;BME280;2713;42.680;23.310;2022-10-22T13:27:51;95488.66;;;19.44;46.50
5380;BME280;2713;42.680;23.310;2022-10-22T13:30:21;95495.00;;;19.54;46.26
5380;BME280;2713;42.680;23.310;2022-10-22T13:32:50;95493.38;;;19.53;46.02
5380;BME280;2713;42.680;23.310;2022-10-22T13:35:20;95498.22;;;19.56;46.41
5380;BME280;2713;42.680;23.310;2022-10-22T13:37:48;95502.91;;;19.54;46.24